Terminal Aerodrome Forecast
Issued by NWS

Home | Current Version | Previous Version | Text Only | Print | Product List | Glossary On
Versions: 1 2 3 4 5 6 7 8 9 10 11 12 13 14 15 16 17 18 19 20 21 22
786
FTUS43 KIND 100520
TAFBMG
TAF
KBMG 100520Z 1006/1106 28010KT P6SM -SHSN SCT015 OVC045
      TEMPO 1006/1009 2SM -SHSN OVC015
     FM101100 29009KT P6SM SCT025 BKN045
      TEMPO 1013/1017 BKN025 OVC045
     FM110100 27006KT P6SM SCT045 SCT080
      AMD LTD TO CLD VIS AND WIND TIL 101400=

USA.gov is the U.S. government's official web portal to all federal, state and local government web resources and services.